sensor_id;sensor_type;location;lat;lon;timestamp;temperature;humidity
60242;SHT30;46103;52.076;113.488;2022-11-21T00:01:18;-20.96;57.08
60242;SHT30;46103;52.076;113.488;2022-11-21T00:04:23;-20.95;56.90
60242;SHT30;46103;52.076;113.488;2022-11-21T00:07:29;-20.92;56.48
60242;SHT30;46103;52.076;113.488;2022-11-21T00:10:35;-20.85;56.54
60242;SHT30;46103;52.076;113.488;2022-11-21T00:13:42;-20.80;56.34
60242;SHT30;46103;52.076;113.488;2022-11-21T00:16:53;-20.75;55.79
60242;SHT30;46103;52.076;113.488;2022-11-21T00:20:00;-20.68;56.04
60242;SHT30;46103;52.076;113.488;2022-11-21T00:23:09;-20.60;55.72
60242;SHT30;46103;52.076;113.488;2022-11-21T00:26:21;-20.55;55.59
60242;SHT30;46103;52.076;113.488;2022-11-21T00:29:27;-20.49;55.29
60242;SHT30;46103;52.076;113.488;2022-11-21T00:32:33;-20.42;55.86
60242;SHT30;46103;52.076;113.488;2022-11-21T00:35:38;-20.35;55.11
60242;SHT30;46103;52.076;113.488;2022-11-21T00:38:43;-20.33;54.82
60242;SHT30;46103;52.076;113.488;2022-11-21T00:41:47;-20.26;54.43
60242;SHT30;46103;52.076;113.488;2022-11-21T00:44:54;-20.21;53.91
60242;SHT30;46103;52.076;113.488;2022-11-21T00:47:58;-20.19;53.97
60242;SHT30;46103;52.076;113.488;2022-11-21T00:51:02;-20.17;53.72
60242;SHT30;46103;52.076;113.488;2022-11-21T00:54:05;-20.15;53.00
60242;SHT30;46103;52.076;113.488;2022-11-21T00:57:10;-20.12;52.91
60242;SHT30;46103;52.076;113.488;2022-11-21T01:00:13;-20.15;52.48
60242;SHT30;46103;52.076;113.488;2022-11-21T01:03:18;-20.17;52.22
60242;SHT30;46103;52.076;113.488;2022-11-21T01:06:21;-20.21;52.56
60242;SHT30;46103;52.076;113.488;2022-11-21T01:09:26;-20.33;54.23
60242;SHT30;46103;52.076;113.488;2022-11-21T01:12:30;-20.25;54.37
60242;SHT30;46103;52.076;113.488;2022-11-21T01:15:34;-20.14;53.25
60242;SHT30;46103;52.076;113.488;2022-11-21T01:18:39;-20.02;53.44
60242;SHT30;46103;52.076;113.488;2022-11-21T01:21:43;-19.87;53.47
60242;SHT30;46103;52.076;113.488;2022-11-21T01:24:47;-19.76;53.70
60242;SHT30;46103;52.076;113.488;2022-11-21T01:27:51;-19.58;53.85
60242;SHT30;46103;52.076;113.488;2022-11-21T01:30:54;-19.45;53.62
60242;SHT30;46103;52.076;113.488;2022-11-21T01:33:59;-19.23;53.28
60242;SHT30;46103;52.076;113.488;2022-11-21T01:37:03;-19.02;52.87
60242;SHT30;46103;52.076;113.488;2022-11-21T01:40:08;-18.81;52.64
60242;SHT30;46103;52.076;113.488;2022-11-21T01:43:15;-18.67;52.77
60242;SHT30;46103;52.076;113.488;2022-11-21T01:46:21;-18.52;53.03
60242;SHT30;46103;52.076;113.488;2022-11-21T01:49:30;-18.52;53.05
60242;SHT30;46103;52.076;113.488;2022-11-21T01:52:34;-18.34;52.65
60242;SHT30;46103;52.076;113.488;2022-11-21T01:55:38;-18.15;53.03
60242;SHT30;46103;52.076;113.488;2022-11-21T01:58:43;-18.01;52.83
60242;SHT30;46103;52.076;113.488;2022-11-21T02:01:50;-17.86;52.17
60242;SHT30;46103;52.076;113.488;2022-11-21T02:04:55;-17.75;52.12
60242;SHT30;46103;52.076;113.488;2022-11-21T02:08:03;-17.67;51.21
60242;SHT30;46103;52.076;113.488;2022-11-21T02:14:19;-17.52;51.31
60242;SHT30;46103;52.076;113.488;2022-11-21T02:17:25;-17.42;51.76
60242;SHT30;46103;52.076;113.488;2022-11-21T02:20:29;-17.28;51.68
60242;SHT30;46103;52.076;113.488;2022-11-21T02:23:56;-17.07;51.59
60242;SHT30;46103;52.076;113.488;2022-11-21T02:27:02;-16.93;51.13
60242;SHT30;46103;52.076;113.488;2022-11-21T02:30:08;-16.86;51.40
60242;SHT30;46103;52.076;113.488;2022-11-21T02:33:12;-16.72;51.32
60242;SHT30;46103;52.076;113.488;2022-11-21T02:36:40;-16.52;50.87
60242;SHT30;46103;52.076;113.488;2022-11-21T02:39:45;-16.37;50.53
60242;SHT30;46103;52.076;113.488;2022-11-21T02:43:03;-16.21;50.27
60242;SHT30;46103;52.076;113.488;2022-11-21T02:46:09;-16.03;49.90
60242;SHT30;46103;52.076;113.488;2022-11-21T02:49:13;-15.90;49.46
60242;SHT30;46103;52.076;113.488;2022-11-21T02:52:19;-15.87;49.40
60242;SHT30;46103;52.076;113.488;2022-11-21T02:55:23;-15.72;49.75
60242;SHT30;46103;52.076;113.488;2022-11-21T02:58:27;-15.53;49.69
60242;SHT30;46103;52.076;113.488;2022-11-21T03:01:30;-15.37;49.43
60242;SHT30;46103;52.076;113.488;2022-11-21T03:04:34;-15.26;48.94
60242;SHT30;46103;52.076;113.488;2022-11-21T03:07:37;-15.16;48.65
60242;SHT30;46103;52.076;113.488;2022-11-21T03:10:41;-15.12;48.47
60242;SHT30;46103;52.076;113.488;2022-11-21T03:13:44;-15.12;49.21
60242;SHT30;46103;52.076;113.488;2022-11-21T03:16:48;-14.92;49.13
60242;SHT30;46103;52.076;113.488;2022-11-21T03:19:51;-14.79;49.24
60242;SHT30;46103;52.076;113.488;2022-11-21T03:22:56;-14.74;48.84
60242;SHT30;46103;52.076;113.488;2022-11-21T03:25:59;-14.63;49.24
60242;SHT30;46103;52.076;113.488;2022-11-21T03:29:03;-14.53;49.16
60242;SHT30;46103;52.076;113.488;2022-11-21T03:32:06;-14.46;49.54
60242;SHT30;46103;52.076;113.488;2022-11-21T03:35:10;-14.36;49.45
60242;SHT30;46103;52.076;113.488;2022-11-21T03:38:14;-14.22;49.54
60242;SHT30;46103;52.076;113.488;2022-11-21T03:41:18;-14.09;50.05
60242;SHT30;46103;52.076;113.488;2022-11-21T03:44:34;-14.01;50.45
60242;SHT30;46103;52.076;113.488;2022-11-21T03:47:38;-13.91;50.20
60242;SHT30;46103;52.076;113.488;2022-11-21T03:50:44;-13.96;50.53
60242;SHT30;46103;52.076;113.488;2022-11-21T03:53:49;-13.83;51.39
60242;SHT30;46103;52.076;113.488;2022-11-21T03:56:52;-13.67;51.13
60242;SHT30;46103;52.076;113.488;2022-11-21T03:59:57;-13.53;51.03
60242;SHT30;46103;52.076;113.488;2022-11-21T04:03:00;-13.39;50.82
60242;SHT30;46103;52.076;113.488;2022-11-21T04:06:05;-13.37;51.02
60242;SHT30;46103;52.076;113.488;2022-11-21T04:09:10;-13.27;50.65
60242;SHT30;46103;52.076;113.488;2022-11-21T04:12:16;-13.29;50.16
60242;SHT30;46103;52.076;113.488;2022-11-21T04:15:23;-13.19;50.29
60242;SHT30;46103;52.076;113.488;2022-11-21T04:18:38;-13.02;50.35
60242;SHT30;46103;52.076;113.488;2022-11-21T04:21:50;-12.87;49.66
60242;SHT30;46103;52.076;113.488;2022-11-21T04:25:03;-13.01;49.98
60242;SHT30;46103;52.076;113.488;2022-11-21T04:28:12;-13.05;50.99
60242;SHT30;46103;52.076;113.488;2022-11-21T04:31:16;-13.12;50.86
60242;SHT30;46103;52.076;113.488;2022-11-21T04:34:20;-12.99;50.96
60242;SHT30;46103;52.076;113.488;2022-11-21T04:37:24;-12.47;50.08
60242;SHT30;46103;52.076;113.488;2022-11-21T04:40:27;-11.87;48.64
60242;SHT30;46103;52.076;113.488;2022-11-21T04:43:30;-11.60;47.59
60242;SHT30;46103;52.076;113.488;2022-11-21T04:46:32;-11.53;47.83
60242;SHT30;46103;52.076;113.488;2022-11-21T04:49:35;-11.08;46.86
60242;SHT30;46103;52.076;113.488;2022-11-21T04:52:40;-10.63;46.40
60242;SHT30;46103;52.076;113.488;2022-11-21T04:55:44;-10.28;44.99
60242;SHT30;46103;52.076;113.488;2022-11-21T04:58:51;-9.97;44.44
60242;SHT30;46103;52.076;113.488;2022-11-21T05:01:54;-9.95;44.29
60242;SHT30;46103;52.076;113.488;2022-11-21T05:04:58;-10.07;44.55
60242;SHT30;46103;52.076;113.488;2022-11-21T05:08:03;-10.15;45.01
60242;SHT30;46103;52.076;113.488;2022-11-21T05:11:06;-10.17;45.35
60242;SHT30;46103;52.076;113.488;2022-11-21T05:14:28;-10.09;45.60
60242;SHT30;46103;52.076;113.488;2022-11-21T05:17:32;-10.04;45.61
60242;SHT30;46103;52.076;113.488;2022-11-21T05:20:35;-9.97;45.56
60242;SHT30;46103;52.076;113.488;2022-11-21T05:23:39;-9.81;45.48
60242;SHT30;46103;52.076;113.488;2022-11-21T05:26:42;-9.87;45.14
60242;SHT30;46103;52.076;113.488;2022-11-21T05:29:46;-10.08;45.93
60242;SHT30;46103;52.076;113.488;2022-11-21T05:32:49;-10.35;46.64
60242;SHT30;46103;52.076;113.488;2022-11-21T05:35:53;-10.42;47.61
60242;SHT30;46103;52.076;113.488;2022-11-21T05:38:57;-10.29;47.05
60242;SHT30;46103;52.076;113.488;2022-11-21T05:42:00;-10.37;47.29
60242;SHT30;46103;52.076;113.488;2022-11-21T05:45:04;-10.26;47.35
60242;SHT30;46103;52.076;113.488;2022-11-21T05:48:08;-10.15;47.23
60242;SHT30;46103;52.076;113.488;2022-11-21T05:51:12;-9.98;46.82
60242;SHT30;46103;52.076;113.488;2022-11-21T05:54:15;-9.74;46.43
60242;SHT30;46103;52.076;113.488;2022-11-21T05:57:20;-9.56;45.82
60242;SHT30;46103;52.076;113.488;2022-11-21T06:00:23;-9.39;45.31
60242;SHT30;46103;52.076;113.488;2022-11-21T06:03:30;-9.19;45.09
60242;SHT30;46103;52.076;113.488;2022-11-21T06:06:35;-9.11;44.84
60242;SHT30;46103;52.076;113.488;2022-11-21T06:09:39;-9.02;44.71
60242;SHT30;46103;52.076;113.488;2022-11-21T06:12:42;-8.91;44.64
60242;SHT30;46103;52.076;113.488;2022-11-21T06:15:57;-8.85;44.46
60242;SHT30;46103;52.076;113.488;2022-11-21T06:19:01;-8.84;44.48
60242;SHT30;46103;52.076;113.488;2022-11-21T06:22:05;-8.94;44.95
60242;SHT30;46103;52.076;113.488;2022-11-21T06:25:09;-8.85;44.81
60242;SHT30;46103;52.076;113.488;2022-11-21T06:28:12;-8.81;44.89
60242;SHT30;46103;52.076;113.488;2022-11-21T06:31:24;-8.71;44.65
60242;SHT30;46103;52.076;113.488;2022-11-21T06:34:28;-8.54;44.05
60242;SHT30;46103;52.076;113.488;2022-11-21T06:37:32;-8.46;43.82
60242;SHT30;46103;52.076;113.488;2022-11-21T06:40:35;-8.42;43.79
60242;SHT30;46103;52.076;113.488;2022-11-21T06:43:39;-8.28;43.75
60242;SHT30;46103;52.076;113.488;2022-11-21T06:46:45;-8.11;43.41
60242;SHT30;46103;52.076;113.488;2022-11-21T06:49:53;-8.02;43.23
60242;SHT30;46103;52.076;113.488;2022-11-21T06:52:57;-7.93;43.09
60242;SHT30;46103;52.076;113.488;2022-11-21T06:56:01;-7.94;42.98
60242;SHT30;46103;52.076;113.488;2022-11-21T06:59:06;-7.93;43.04
60242;SHT30;46103;52.076;113.488;2022-11-21T07:02:13;-7.94;43.25
60242;SHT30;46103;52.076;113.488;2022-11-21T07:05:16;-7.93;43.40
60242;SHT30;46103;52.076;113.488;2022-11-21T07:08:19;-7.84;43.34
60242;SHT30;46103;52.076;113.488;2022-11-21T07:11:24;-7.83;43.27
60242;SHT30;46103;52.076;113.488;2022-11-21T07:14:28;-7.83;43.10
60242;SHT30;46103;52.076;113.488;2022-11-21T07:17:32;-7.84;43.36
60242;SHT30;46103;52.076;113.488;2022-11-21T07:20:36;-7.81;43.31
60242;SHT30;46103;52.076;113.488;2022-11-21T07:23:40;-7.77;43.38
60242;SHT30;46103;52.076;113.488;2022-11-21T07:26:43;-7.67;43.24
60242;SHT30;46103;52.076;113.488;2022-11-21T07:29:48;-7.77;42.97
60242;SHT30;46103;52.076;113.488;2022-11-21T07:32:58;-7.80;42.94
60242;SHT30;46103;52.076;113.488;2022-11-21T07:36:03;-7.76;43.19
60242;SHT30;46103;52.076;113.488;2022-11-21T07:39:07;-7.79;43.07
60242;SHT30;46103;52.076;113.488;2022-11-21T07:42:11;-7.80;43.06
60242;SHT30;46103;52.076;113.488;2022-11-21T07:45:15;-7.87;43.16
60242;SHT30;46103;52.076;113.488;2022-11-21T07:48:19;-7.91;43.65
60242;SHT30;46103;52.076;113.488;2022-11-21T07:51:23;-7.99;43.61
60242;SHT30;46103;52.076;113.488;2022-11-21T07:54:27;-8.17;44.15
60242;SHT30;46103;52.076;113.488;2022-11-21T07:57:31;-8.28;44.47
60242;SHT30;46103;52.076;113.488;2022-11-21T08:00:37;-8.39;44.85
60242;SHT30;46103;52.076;113.488;2022-11-21T08:03:41;-8.57;45.29
60242;SHT30;46103;52.076;113.488;2022-11-21T08:06:46;-8.71;45.80
60242;SHT30;46103;52.076;113.488;2022-11-21T08:09:49;-8.88;46.51
60242;SHT30;46103;52.076;113.488;2022-11-21T08:12:53;-9.08;46.89
60242;SHT30;46103;52.076;113.488;2022-11-21T08:15:57;-9.26;47.57
60242;SHT30;46103;52.076;113.488;2022-11-21T08:19:02;-9.47;48.11
60242;SHT30;46103;52.076;113.488;2022-11-21T08:22:06;-9.70;48.59
60242;SHT30;46103;52.076;113.488;2022-11-21T08:25:10;-9.97;49.58
60242;SHT30;46103;52.076;113.488;2022-11-21T08:28:14;-10.29;50.67
60242;SHT30;46103;52.076;113.488;2022-11-21T08:31:19;-10.52;51.47
60242;SHT30;46103;52.076;113.488;2022-11-21T08:34:24;-10.67;52.31
60242;SHT30;46103;52.076;113.488;2022-11-21T08:37:29;-10.78;52.54
60242;SHT30;46103;52.076;113.488;2022-11-21T08:40:35;-11.01;53.34
60242;SHT30;46103;52.076;113.488;2022-11-21T08:43:39;-11.21;55.40
60242;SHT30;46103;52.076;113.488;2022-11-21T08:46:43;-11.29;55.49
60242;SHT30;46103;52.076;113.488;2022-11-21T08:49:47;-11.31;55.12
60242;SHT30;46103;52.076;113.488;2022-11-21T08:52:58;-11.39;55.54
60242;SHT30;46103;52.076;113.488;2022-11-21T08:56:04;-11.40;55.54
60242;SHT30;46103;52.076;113.488;2022-11-21T08:59:08;-11.38;55.51
60242;SHT30;46103;52.076;113.488;2022-11-21T09:02:17;-11.47;55.50
60242;SHT30;46103;52.076;113.488;2022-11-21T09:05:21;-11.50;55.57
60242;SHT30;46103;52.076;113.488;2022-11-21T09:08:30;-11.53;55.47
60242;SHT30;46103;52.076;113.488;2022-11-21T09:11:34;-11.59;55.55
60242;SHT30;46103;52.076;113.488;2022-11-21T09:14:39;-11.63;55.93
60242;SHT30;46103;52.076;113.488;2022-11-21T09:18:04;-11.78;56.53
60242;SHT30;46103;52.076;113.488;2022-11-21T09:21:14;-11.80;57.00
60242;SHT30;46103;52.076;113.488;2022-11-21T09:24:18;-11.84;56.92
60242;SHT30;46103;52.076;113.488;2022-11-21T09:27:23;-11.84;56.73
60242;SHT30;46103;52.076;113.488;2022-11-21T09:30:26;-11.91;56.96
60242;SHT30;46103;52.076;113.488;2022-11-21T09:33:29;-12.08;57.41
60242;SHT30;46103;52.076;113.488;2022-11-21T09:36:32;-12.25;58.31
60242;SHT30;46103;52.076;113.488;2022-11-21T09:39:36;-12.28;58.35
60242;SHT30;46103;52.076;113.488;2022-11-21T09:46:18;-12.39;58.80
60242;SHT30;46103;52.076;113.488;2022-11-21T09:49:28;-12.46;59.22
60242;SHT30;46103;52.076;113.488;2022-11-21T09:52:57;-12.47;59.47
60242;SHT30;46103;52.076;113.488;2022-11-21T10:02:18;-12.45;59.73
60242;SHT30;46103;52.076;113.488;2022-11-21T10:05:42;-12.43;59.51
60242;SHT30;46103;52.076;113.488;2022-11-21T10:26:15;-12.63;60.09
60242;SHT30;46103;52.076;113.488;2022-11-21T10:29:33;-12.63;60.12
60242;SHT30;46103;52.076;113.488;2022-11-21T10:32:43;-12.68;60.47
60242;SHT30;46103;52.076;113.488;2022-11-21T10:35:52;-12.68;60.35
60242;SHT30;46103;52.076;113.488;2022-11-21T10:39:04;-12.71;60.57
60242;SHT30;46103;52.076;113.488;2022-11-21T10:45:15;-12.80;61.69
60242;SHT30;46103;52.076;113.488;2022-11-21T10:48:20;-12.78;62.17
60242;SHT30;46103;52.076;113.488;2022-11-21T10:55:06;-12.85;62.29
60242;SHT30;46103;52.076;113.488;2022-11-21T10:58:17;-12.92;63.61
60242;SHT30;46103;52.076;113.488;2022-11-21T11:01:28;-12.87;62.83
60242;SHT30;46103;52.076;113.488;2022-11-21T11:04:32;-12.80;62.83
60242;SHT30;46103;52.076;113.488;2022-11-21T11:08:12;-12.77;62.44
60242;SHT30;46103;52.076;113.488;2022-11-21T11:11:20;-12.73;62.45
60242;SHT30;46103;52.076;113.488;2022-11-21T11:14:27;-12.74;62.47
60242;SHT30;46103;52.076;113.488;2022-11-21T11:17:33;-12.81;62.67
60242;SHT30;46103;52.076;113.488;2022-11-21T11:20:38;-12.84;62.38
60242;SHT30;46103;52.076;113.488;2022-11-21T11:23:42;-12.83;62.53
60242;SHT30;46103;52.076;113.488;2022-11-21T11:29:51;-12.81;62.51
60242;SHT30;46103;52.076;113.488;2022-11-21T11:32:54;-12.77;62.46
60242;SHT30;46103;52.076;113.488;2022-11-21T11:36:12;-12.78;62.75
60242;SHT30;46103;52.076;113.488;2022-11-21T11:39:32;-12.78;62.94
60242;SHT30;46103;52.076;113.488;2022-11-21T11:50:09;-12.74;63.39
60242;SHT30;46103;52.076;113.488;2022-11-21T11:53:19;-12.71;62.88
60242;SHT30;46103;52.076;113.488;2022-11-21T11:56:30;-12.70;62.70
60242;SHT30;46103;52.076;113.488;2022-11-21T11:59:38;-12.71;62.75
60242;SHT30;46103;52.076;113.488;2022-11-21T12:03:18;-12.78;62.40
60242;SHT30;46103;52.076;113.488;2022-11-21T12:13:12;-13.13;60.96
60242;SHT30;46103;52.076;113.488;2022-11-21T12:16:19;-13.25;61.32
60242;SHT30;46103;52.076;113.488;2022-11-21T12:19:25;-13.36;60.90
60242;SHT30;46103;52.076;113.488;2022-11-21T12:22:29;-13.46;60.73
60242;SHT30;46103;52.076;113.488;2022-11-21T12:26:17;-13.64;60.97
60242;SHT30;46103;52.076;113.488;2022-11-21T12:33:05;-13.88;60.83
60242;SHT30;46103;52.076;113.488;2022-11-21T12:36:18;-13.95;64.16
60242;SHT30;46103;52.076;113.488;2022-11-21T12:43:27;-14.12;61.71
60242;SHT30;46103;52.076;113.488;2022-11-21T12:47:00;-14.12;61.32
60242;SHT30;46103;52.076;113.488;2022-11-21T12:50:27;-14.10;61.11
60242;SHT30;46103;52.076;113.488;2022-11-21T12:54:39;-14.06;61.60
60242;SHT30;46103;52.076;113.488;2022-11-21T13:04:38;-13.99;64.74
60242;SHT30;46103;52.076;113.488;2022-11-21T13:07:43;-13.92;65.50
60242;SHT30;46103;52.076;113.488;2022-11-21T13:17:58;-14.02;64.19
60242;SHT30;46103;52.076;113.488;2022-11-21T13:21:04;-14.19;64.26
60242;SHT30;46103;52.076;113.488;2022-11-21T13:24:07;-14.18;62.97
60242;SHT30;46103;52.076;113.488;2022-11-21T13:30:50;-14.26;63.63
60242;SHT30;46103;52.076;113.488;2022-11-21T13:33:54;-14.29;61.71
60242;SHT30;46103;52.076;113.488;2022-11-21T13:36:58;-14.36;61.38
60242;SHT30;46103;52.076;113.488;2022-11-21T13:43:29;-14.47;60.56
60242;SHT30;46103;52.076;113.488;2022-11-21T13:47:01;-14.50;60.49
60242;SHT30;46103;52.076;113.488;2022-11-21T13:50:49;-14.48;60.94
60242;SHT30;46103;52.076;113.488;2022-11-21T13:54:18;-14.41;60.07
60242;SHT30;46103;52.076;113.488;2022-11-21T14:07:34;-14.16;62.12
60242;SHT30;46103;52.076;113.488;2022-11-21T14:10:38;-14.12;63.25
60242;SHT30;46103;52.076;113.488;2022-11-21T14:13:46;-14.10;61.95
60242;SHT30;46103;52.076;113.488;2022-11-21T14:17:14;-14.09;61.51
60242;SHT30;46103;52.076;113.488;2022-11-21T14:20:27;-14.12;62.91
60242;SHT30;46103;52.076;113.488;2022-11-21T14:23:32;-13.95;61.82
60242;SHT30;46103;52.076;113.488;2022-11-21T14:26:43;-13.79;61.56
60242;SHT30;46103;52.076;113.488;2022-11-21T14:29:48;-13.78;60.28
60242;SHT30;46103;52.076;113.488;2022-11-21T14:32:52;-13.78;60.87
60242;SHT30;46103;52.076;113.488;2022-11-21T14:39:07;-13.57;61.25
60242;SHT30;46103;52.076;113.488;2022-11-21T14:42:35;-13.47;59.31
60242;SHT30;46103;52.076;113.488;2022-11-21T14:45:38;-13.48;58.95
60242;SHT30;46103;52.076;113.488;2022-11-21T14:48:51;-13.53;58.34
60242;SHT30;46103;52.076;113.488;2022-11-21T14:52:02;-13.57;59.18
60242;SHT30;46103;52.076;113.488;2022-11-21T14:55:21;-13.58;58.97
60242;SHT30;46103;52.076;113.488;2022-11-21T14:58:32;-13.61;58.76
60242;SHT30;46103;52.076;113.488;2022-11-21T15:01:36;-13.68;59.72
60242;SHT30;46103;52.076;113.488;2022-11-21T15:04:46;-13.72;59.59
60242;SHT30;46103;52.076;113.488;2022-11-21T15:07:50;-13.77;60.03
60242;SHT30;46103;52.076;113.488;2022-11-21T15:11:16;-13.86;60.25
60242;SHT30;46103;52.076;113.488;2022-11-21T15:14:41;-13.82;59.23
60242;SHT30;46103;52.076;113.488;2022-11-21T15:17:48;-13.83;59.19
60242;SHT30;46103;52.076;113.488;2022-11-21T15:21:15;-13.82;59.07
60242;SHT30;46103;52.076;113.488;2022-11-21T15:24:37;-13.83;58.55
60242;SHT30;46103;52.076;113.488;2022-11-21T15:27:47;-13.95;59.41
60242;SHT30;46103;52.076;113.488;2022-11-21T15:31:18;-14.02;60.44
60242;SHT30;46103;52.076;113.488;2022-11-21T15:34:25;-14.01;60.24
60242;SHT30;46103;52.076;113.488;2022-11-21T15:37:48;-14.01;59.80
60242;SHT30;46103;52.076;113.488;2022-11-21T15:41:28;-13.99;59.69
60242;SHT30;46103;52.076;113.488;2022-11-21T15:44:32;-13.96;60.44
60242;SHT30;46103;52.076;113.488;2022-11-21T15:47:35;-13.91;59.63
60242;SHT30;46103;52.076;113.488;2022-11-21T15:50:39;-13.81;59.23
60242;SHT30;46103;52.076;113.488;2022-11-21T15:53:43;-13.72;58.84
60242;SHT30;46103;52.076;113.488;2022-11-21T15:56:47;-13.67;58.70
60242;SHT30;46103;52.076;113.488;2022-11-21T15:59:51;-13.65;59.68
60242;SHT30;46103;52.076;113.488;2022-11-21T16:02:55;-13.79;61.06
60242;SHT30;46103;52.076;113.488;2022-11-21T16:05:59;-13.71;60.82
60242;SHT30;46103;52.076;113.488;2022-11-21T16:09:03;-13.57;60.23
60242;SHT30;46103;52.076;113.488;2022-11-21T16:12:08;-13.64;60.67
60242;SHT30;46103;52.076;113.488;2022-11-21T16:15:11;-13.68;61.00
60242;SHT30;46103;52.076;113.488;2022-11-21T16:18:15;-13.51;60.08
60242;SHT30;46103;52.076;113.488;2022-11-21T16:21:19;-13.61;58.81
60242;SHT30;46103;52.076;113.488;2022-11-21T16:24:23;-13.74;59.82
60242;SHT30;46103;52.076;113.488;2022-11-21T16:27:27;-13.74;57.59
60242;SHT30;46103;52.076;113.488;2022-11-21T16:30:31;-13.68;59.44
60242;SHT30;46103;52.076;113.488;2022-11-21T16:33:38;-13.61;57.97
60242;SHT30;46103;52.076;113.488;2022-11-21T16:36:42;-13.55;57.00
60242;SHT30;46103;52.076;113.488;2022-11-21T16:39:45;-13.61;57.93
60242;SHT30;46103;52.076;113.488;2022-11-21T16:43:06;-13.54;57.90
60242;SHT30;46103;52.076;113.488;2022-11-21T16:46:11;-13.54;57.44
60242;SHT30;46103;52.076;113.488;2022-11-21T16:49:14;-13.44;57.41
60242;SHT30;46103;52.076;113.488;2022-11-21T16:52:17;-13.42;58.01
60242;SHT30;46103;52.076;113.488;2022-11-21T16:55:22;-13.29;58.39
60242;SHT30;46103;52.076;113.488;2022-11-21T16:58:25;-13.25;58.82
60242;SHT30;46103;52.076;113.488;2022-11-21T17:01:29;-13.20;58.93
60242;SHT30;46103;52.076;113.488;2022-11-21T17:04:35;-13.15;59.14
60242;SHT30;46103;52.076;113.488;2022-11-21T17:07:38;-13.18;59.09
60242;SHT30;46103;52.076;113.488;2022-11-21T17:10:42;-13.29;59.23
60242;SHT30;46103;52.076;113.488;2022-11-21T17:13:47;-13.29;59.50
60242;SHT30;46103;52.076;113.488;2022-11-21T17:16:51;-13.29;59.79
60242;SHT30;46103;52.076;113.488;2022-11-21T17:19:54;-13.13;59.52
60242;SHT30;46103;52.076;113.488;2022-11-21T17:22:58;-13.08;59.00
60242;SHT30;46103;52.076;113.488;2022-11-21T17:26:08;-13.06;58.59
60242;SHT30;46103;52.076;113.488;2022-11-21T17:29:13;-13.04;57.94
60242;SHT30;46103;52.076;113.488;2022-11-21T17:32:17;-13.08;57.69
60242;SHT30;46103;52.076;113.488;2022-11-21T17:35:20;-13.18;57.44
60242;SHT30;46103;52.076;113.488;2022-11-21T17:38:23;-13.26;57.75
60242;SHT30;46103;52.076;113.488;2022-11-21T17:41:28;-13.22;57.79
60242;SHT30;46103;52.076;113.488;2022-11-21T17:44:31;-13.16;57.87
60242;SHT30;46103;52.076;113.488;2022-11-21T17:47:36;-13.11;57.94
60242;SHT30;46103;52.076;113.488;2022-11-21T17:50:39;-13.06;57.95
60242;SHT30;46103;52.076;113.488;2022-11-21T17:53:45;-13.04;58.04
60242;SHT30;46103;52.076;113.488;2022-11-21T17:56:51;-12.99;58.29
60242;SHT30;46103;52.076;113.488;2022-11-21T17:59:58;-12.95;58.27
60242;SHT30;46103;52.076;113.488;2022-11-21T18:03:02;-12.96;57.96
60242;SHT30;46103;52.076;113.488;2022-11-21T18:06:10;-12.94;58.09
60242;SHT30;46103;52.076;113.488;2022-11-21T18:09:14;-12.89;58.05
60242;SHT30;46103;52.076;113.488;2022-11-21T18:12:19;-12.92;58.85
60242;SHT30;46103;52.076;113.488;2022-11-21T18:15:24;-12.96;59.39
60242;SHT30;46103;52.076;113.488;2022-11-21T18:18:28;-13.13;59.77
60242;SHT30;46103;52.076;113.488;2022-11-21T18:21:33;-13.16;60.29
60242;SHT30;46103;52.076;113.488;2022-11-21T18:24:39;-13.08;60.19
60242;SHT30;46103;52.076;113.488;2022-11-21T18:27:43;-13.02;60.18
60242;SHT30;46103;52.076;113.488;2022-11-21T18:31:16;-13.15;60.13
60242;SHT30;46103;52.076;113.488;2022-11-21T18:34:20;-13.23;59.84
60242;SHT30;46103;52.076;113.488;2022-11-21T18:37:24;-13.29;60.11
60242;SHT30;46103;52.076;113.488;2022-11-21T18:40:28;-13.37;59.72
60242;SHT30;46103;52.076;113.488;2022-11-21T18:43:32;-13.39;59.74
60242;SHT30;46103;52.076;113.488;2022-11-21T18:46:36;-13.42;59.60
60242;SHT30;46103;52.076;113.488;2022-11-21T18:49:43;-13.48;59.40
60242;SHT30;46103;52.076;113.488;2022-11-21T18:52:46;-13.55;60.15
60242;SHT30;46103;52.076;113.488;2022-11-21T18:55:49;-13.61;60.56
60242;SHT30;46103;52.076;113.488;2022-11-21T18:58:53;-13.58;60.51
60242;SHT30;46103;52.076;113.488;2022-11-21T19:02:00;-13.60;60.80
60242;SHT30;46103;52.076;113.488;2022-11-21T19:05:05;-13.63;60.82
60242;SHT30;46103;52.076;113.488;2022-11-21T19:08:08;-13.58;60.41
60242;SHT30;46103;52.076;113.488;2022-11-21T19:11:14;-13.61;60.32
60242;SHT30;46103;52.076;113.488;2022-11-21T19:14:18;-13.65;60.36
60242;SHT30;46103;52.076;113.488;2022-11-21T19:17:22;-13.72;60.21
60242;SHT30;46103;52.076;113.488;2022-11-21T19:20:25;-13.65;60.11
60242;SHT30;46103;52.076;113.488;2022-11-21T19:23:29;-13.61;60.08
60242;SHT30;46103;52.076;113.488;2022-11-21T19:26:33;-13.57;59.87
60242;SHT30;46103;52.076;113.488;2022-11-21T19:29:37;-13.51;59.55
60242;SHT30;46103;52.076;113.488;2022-11-21T19:32:41;-13.51;59.92
60242;SHT30;46103;52.076;113.488;2022-11-21T19:35:45;-13.53;59.74
60242;SHT30;46103;52.076;113.488;2022-11-21T19:38:49;-13.60;59.58
60242;SHT30;46103;52.076;113.488;2022-11-21T19:41:54;-13.60;59.91
60242;SHT30;46103;52.076;113.488;2022-11-21T19:44:58;-13.57;60.25
60242;SHT30;46103;52.076;113.488;2022-11-21T19:48:01;-13.57;60.30
60242;SHT30;46103;52.076;113.488;2022-11-21T19:51:05;-13.58;60.70
60242;SHT30;46103;52.076;113.488;2022-11-21T19:54:10;-13.61;61.10
60242;SHT30;46103;52.076;113.488;2022-11-21T19:57:15;-13.68;61.30
60242;SHT30;46103;52.076;113.488;2022-11-21T20:00:18;-13.75;61.73
60242;SHT30;46103;52.076;113.488;2022-11-21T20:03:24;-13.68;61.76
60242;SHT30;46103;52.076;113.488;2022-11-21T20:06:36;-13.70;61.72
60242;SHT30;46103;52.076;113.488;2022-11-21T20:09:41;-13.78;61.97
60242;SHT30;46103;52.076;113.488;2022-11-21T20:12:44;-13.95;62.67
60242;SHT30;46103;52.076;113.488;2022-11-21T20:15:48;-13.91;62.76
60242;SHT30;46103;52.076;113.488;2022-11-21T20:18:52;-13.88;62.71
60242;SHT30;46103;52.076;113.488;2022-11-21T20:21:57;-13.93;62.93
60242;SHT30;46103;52.076;113.488;2022-11-21T20:25:01;-14.08;63.35
60242;SHT30;46103;52.076;113.488;2022-11-21T20:28:04;-14.19;63.72